Time;durP1;ratioP1;P1;durP2;ratioP2;P2;SDS_P1;SDS_P2;PMS_P1;PMS_P2;Temp;Humidity;BMP_temperature;BMP_pressure;BME280_temperature;BME280_humidity;BME280_pressure;Samples;Min_cycle;Max_cycle;Signal;HPM_P1;HPM_P2
2023/04/19 00:00:36;;;;;;;11.40;6.10;;;10.80;64.30;;;;;;4965407;28;20486;-71
2023/04/19 00:03:05;;;;;;;10.77;6.43;;;10.80;64.30;;;;;;4965450;28;20051;-71
2023/04/19 00:05:32;;;;;;;11.50;5.85;;;10.80;64.30;;;;;;4968342;28;20053;-71
2023/04/19 00:07:59;;;;;;;12.10;6.25;;;10.80;64.40;;;;;;4977850;28;20048;-71
2023/04/19 00:10:26;;;;;;;13.32;6.25;;;10.80;64.30;;;;;;4973344;28;20134;-71
2023/04/19 00:12:53;;;;;;;12.83;6.37;;;10.70;64.40;;;;;;4968421;28;20048;-71
2023/04/19 00:15:20;;;;;;;11.68;6.07;;;10.70;64.50;;;;;;4988878;28;20126;-71
2023/04/19 00:17:47;;;;;;;10.98;6.30;;;10.80;64.40;;;;;;4987927;28;20046;-71
2023/04/19 00:20:15;;;;;;;10.70;5.72;;;10.80;64.40;;;;;;4976231;28;20499;-71
2023/04/19 00:22:42;;;;;;;10.23;5.55;;;10.80;64.40;;;;;;4963509;28;20198;-71
2023/04/19 00:25:09;;;;;;;9.97;5.57;;;10.80;64.30;;;;;;4964175;28;20122;-72
2023/04/19 00:27:36;;;;;;;11.93;5.32;;;10.70;64.40;;;;;;4969261;28;20106;-71
2023/04/19 00:30:03;;;;;;;11.32;5.57;;;10.70;64.30;;;;;;4974210;28;20098;-71
2023/04/19 00:32:31;;;;;;;11.05;5.53;;;10.70;64.30;;;;;;4988355;28;20150;-71
2023/04/19 00:34:58;;;;;;;11.10;5.70;;;10.70;64.40;;;;;;4970436;28;20065;-71
2023/04/19 00:37:26;;;;;;;9.07;5.43;;;10.70;64.30;;;;;;4984410;28;20054;-71
2023/04/19 00:39:53;;;;;;;10.68;5.10;;;10.70;64.30;;;;;;4965727;28;20158;-71
2023/04/19 00:42:20;;;;;;;9.80;5.40;;;10.70;64.30;;;;;;4964724;28;20148;-71
2023/04/19 00:44:47;;;;;;;9.88;5.10;;;10.70;64.30;;;;;;4966214;28;20054;-71
2023/04/19 00:47:15;;;;;;;10.13;5.68;;;10.60;64.30;;;;;;4969138;28;20056;-71
2023/04/19 00:49:43;;;;;;;10.57;5.60;;;10.60;64.40;;;;;;4966715;28;20118;-71
2023/04/19 00:52:10;;;;;;;9.32;5.35;;;10.60;64.50;;;;;;4967593;28;20656;-71
2023/04/19 00:54:40;;;;;;;9.88;5.63;;;10.50;64.50;;;;;;4968026;28;20051;-71
2023/04/19 00:57:07;;;;;;;9.27;5.28;;;10.50;64.60;;;;;;4981812;28;20083;-71
2023/04/19 00:59:34;;;;;;;10.43;5.40;;;10.50;64.60;;;;;;4968599;28;20577;-71
2023/04/19 01:02:03;;;;;;;9.17;5.43;;;10.50;64.60;;;;;;4977472;28;20051;-71
2023/04/19 01:04:30;;;;;;;10.15;5.18;;;10.50;64.50;;;;;;4980228;28;20652;-71
2023/04/19 01:06:57;;;;;;;8.88;5.07;;;10.50;64.50;;;;;;4977075;28;20046;-71
2023/04/19 01:09:24;;;;;;;9.38;5.18;;;10.50;64.50;;;;;;4987786;28;20129;-71
2023/04/19 01:11:53;;;;;;;11.23;5.22;;;10.40;64.50;;;;;;4983359;28;20430;-71
2023/04/19 01:14:19;;;;;;;9.80;5.30;;;10.40;64.70;;;;;;4978055;28;20493;-71
2023/04/19 01:16:46;;;;;;;9.43;5.07;;;10.40;64.60;;;;;;4967391;28;20584;-71
2023/04/19 01:19:13;;;;;;;9.25;5.30;;;10.30;64.70;;;;;;4952470;28;20051;-71
2023/04/19 01:21:42;;;;;;;11.40;6.18;;;10.30;64.70;;;;;;4971312;28;20054;-71
2023/04/19 01:24:11;;;;;;;9.98;5.57;;;10.30;64.90;;;;;;4956708;28;20118;-71
2023/04/19 01:26:37;;;;;;;9.47;5.53;;;10.30;64.80;;;;;;4966311;28;20665;-71
2023/04/19 01:29:04;;;;;;;10.07;5.20;;;10.20;64.90;;;;;;4963737;28;20047;-71
2023/04/19 01:31:31;;;;;;;10.75;5.22;;;10.20;64.80;;;;;;4967510;28;20055;-71
2023/04/19 01:33:58;;;;;;;9.02;5.07;;;10.20;64.80;;;;;;4965283;28;20057;-71
2023/04/19 01:36:26;;;;;;;11.63;5.32;;;10.20;64.80;;;;;;4980258;28;20755;-71
2023/04/19 01:38:53;;;;;;;10.07;4.97;;;10.20;64.70;;;;;;4960846;28;20062;-71
2023/04/19 01:41:25;;;;;;;9.20;5.10;;;10.20;64.70;;;;;;4982150;28;20181;-71
2023/04/19 01:43:52;;;;;;;9.55;5.18;;;10.10;64.70;;;;;;4983286;28;20051;-71
2023/04/19 01:46:20;;;;;;;10.52;5.13;;;10.10;64.60;;;;;;4968620;28;20058;-71
2023/04/19 01:48:46;;;;;;;10.35;5.03;;;10.10;64.60;;;;;;4966914;28;20051;-71
2023/04/19 01:51:13;;;;;;;9.50;5.30;;;10.10;64.50;;;;;;4964474;28;20055;-71
2023/04/19 01:53:41;;;;;;;12.10;5.50;;;10.10;64.50;;;;;;4966843;28;20055;-71
2023/04/19 01:56:08;;;;;;;10.30;5.82;;;10.10;64.30;;;;;;4983205;28;20529;-71
2023/04/19 01:58:38;;;;;;;10.50;5.57;;;10.00;64.20;;;;;;4966793;28;20054;-72
2023/04/19 02:01:05;;;;;;;9.60;5.18;;;10.00;64.20;;;;;;4966223;28;20552;-71
2023/04/19 02:03:32;;;;;;;10.83;5.50;;;10.00;64.30;;;;;;4966627;28;20051;-71
2023/04/19 02:05:59;;;;;;;9.45;5.40;;;10.00;64.30;;;;;;4968621;28;20269;-71
2023/04/19 02:08:27;;;;;;;10.45;5.78;;;9.90;64.30;;;;;;4966679;28;20529;-71
2023/04/19 02:10:54;;;;;;;11.65;5.60;;;10.00;64.30;;;;;;4965039;28;20055;-71
2023/04/19 02:13:21;;;;;;;10.88;5.55;;;10.00;64.10;;;;;;4974044;28;20577;-71
2023/04/19 02:15:49;;;;;;;12.40;5.60;;;9.90;64.00;;;;;;4963239;28;20426;-71
2023/04/19 02:18:16;;;;;;;10.70;5.47;;;9.90;64.00;;;;;;4965981;28;20503;-71
2023/04/19 02:20:43;;;;;;;11.30;5.18;;;9.90;63.90;;;;;;4979337;28;20188;-71
2023/04/19 02:23:10;;;;;;;9.85;5.20;;;9.80;63.90;;;;;;4972105;28;20056;-71
2023/04/19 02:25:37;;;;;;;11.32;5.93;;;9.80;63.80;;;;;;4980311;28;20048;-71
2023/04/19 02:28:05;;;;;;;9.83;5.83;;;9.80;63.90;;;;;;4963662;28;20175;-71
2023/04/19 02:30:32;;;;;;;13.18;6.40;;;9.80;63.90;;;;;;4964702;28;20040;-71
2023/04/19 02:33:00;;;;;;;13.55;6.47;;;9.80;63.80;;;;;;4965227;28;20047;-71
2023/04/19 02:35:27;;;;;;;12.00;5.97;;;9.80;63.80;;;;;;4965397;28;20052;-71
2023/04/19 02:37:54;;;;;;;9.85;5.88;;;9.80;63.70;;;;;;4966796;28;20051;-71
2023/04/19 02:40:22;;;;;;;11.10;5.60;;;9.80;63.90;;;;;;4967835;28;20051;-70
2023/04/19 02:42:50;;;;;;;10.63;6.30;;;9.70;63.90;;;;;;4969299;28;20051;-71
2023/04/19 02:45:17;;;;;;;12.52;5.93;;;9.70;64.00;;;;;;4968181;28;20062;-71
2023/04/19 02:47:46;;;;;;;11.27;6.18;;;9.70;64.00;;;;;;4970116;28;20063;-71
2023/04/19 02:50:17;;;;;;;11.55;5.75;;;9.70;64.00;;;;;;4969276;28;20055;-71
2023/04/19 02:52:48;;;;;;;13.17;6.63;;;9.60;64.00;;;;;;4969697;28;20054;-71
2023/04/19 02:55:15;;;;;;;12.82;6.60;;;9.70;64.00;;;;;;4969820;28;20066;-71
2023/04/19 02:57:43;;;;;;;9.23;5.82;;;9.60;64.00;;;;;;4969683;28;20051;-70
2023/04/19 03:00:12;;;;;;;15.10;6.38;;;9.60;64.00;;;;;;4969392;28;20051;-71
2023/04/19 03:02:43;;;;;;;12.25;6.88;;;9.60;64.10;;;;;;4969638;28;20059;-70
2023/04/19 03:05:11;;;;;;;13.40;6.37;;;9.60;64.20;;;;;;4967882;28;20058;-71
2023/04/19 03:07:39;;;;;;;10.73;5.95;;;9.60;64.10;;;;;;4969883;28;20595;-71
2023/04/19 03:10:08;;;;;;;11.40;6.30;;;9.50;64.20;;;;;;4952858;28;20098;-71
2023/04/19 03:12:35;;;;;;;13.02;6.50;;;9.50;64.10;;;;;;4969657;28;20085;-71
2023/04/19 03:15:02;;;;;;;11.40;6.10;;;9.50;64.00;;;;;;4983178;28;20071;-71
2023/04/19 03:17:29;;;;;;;10.47;6.70;;;9.50;64.00;;;;;;4988848;28;20053;-71
2023/04/19 03:19:56;;;;;;;12.70;7.15;;;9.50;64.00;;;;;;4972260;28;20178;-70
2023/04/19 03:22:23;;;;;;;11.30;6.15;;;9.50;64.00;;;;;;4975591;28;20161;-71
2023/04/19 03:24:51;;;;;;;11.35;6.80;;;9.50;64.00;;;;;;4934122;28;20067;-71
2023/04/19 03:27:22;;;;;;;13.52;6.68;;;9.50;63.90;;;;;;4955869;28;20055;-70
2023/04/19 03:29:56;;;;;;;11.77;6.20;;;9.50;64.00;;;;;;4968218;28;20130;-71
2023/04/19 03:32:23;;;;;;;12.27;6.30;;;9.40;64.00;;;;;;4969202;28;20047;-71
2023/04/19 03:34:50;;;;;;;11.63;6.20;;;9.40;63.80;;;;;;4962324;28;20048;-71
2023/04/19 03:37:17;;;;;;;11.75;6.60;;;9.40;63.80;;;;;;4985738;28;20055;-71
2023/04/19 03:39:44;;;;;;;12.68;6.82;;;9.40;63.90;;;;;;4981378;28;20062;-71
2023/04/19 03:42:16;;;;;;;12.20;6.23;;;9.30;63.90;;;;;;4988129;28;20074;-71
2023/04/19 03:44:52;;;;;;;11.40;6.05;;;9.20;64.00;;;;;;4992033;28;20372;-71
2023/04/19 03:47:19;;;;;;;11.52;6.47;;;9.20;63.90;;;;;;4973495;28;20403;-71
2023/04/19 03:49:49;;;;;;;10.05;5.97;;;9.20;64.00;;;;;;4971718;28;20055;-71
2023/04/19 03:52:17;;;;;;;10.60;6.25;;;9.20;64.00;;;;;;4972216;28;20113;-71
2023/04/19 03:54:44;;;;;;;12.60;5.83;;;9.20;64.00;;;;;;4969139;28;20130;-71
2023/04/19 03:57:26;;;;;;;10.82;5.88;;;9.20;64.00;;;;;;4968893;28;20048;-71
2023/04/19 03:59:54;;;;;;;10.82;5.80;;;9.10;63.90;;;;;;4950497;28;20051;-71
2023/04/19 04:02:21;;;;;;;12.15;6.13;;;9.00;63.70;;;;;;4968632;28;20058;-71
2023/04/19 04:04:53;;;;;;;15.30;5.80;;;9.00;63.70;;;;;;4968470;28;20056;-70
2023/04/19 04:07:22;;;;;;;12.27;5.80;;;9.00;63.70;;;;;;4968358;28;20054;-71
2023/04/19 04:09:49;;;;;;;12.85;5.50;;;8.90;63.60;;;;;;4967700;28;20138;-71
2023/04/19 04:12:16;;;;;;;9.32;5.22;;;8.90;63.70;;;;;;4968524;28;20505;-71
2023/04/19 04:14:44;;;;;;;11.43;5.65;;;8.80;63.90;;;;;;4979593;28;20151;-71
2023/04/19 04:17:12;;;;;;;10.50;5.30;;;8.80;63.80;;;;;;4963188;28;20055;-71
2023/04/19 04:19:40;;;;;;;10.63;5.67;;;8.80;63.90;;;;;;4969604;28;20234;-71
2023/04/19 04:22:08;;;;;;;10.02;5.28;;;8.80;63.90;;;;;;4965861;28;20056;-71
2023/04/19 04:24:40;;;;;;;11.35;5.85;;;8.80;63.60;;;;;;4967819;28;20051;-70
2023/04/19 04:27:20;;;;;;;10.35;5.07;;;8.80;63.70;;;;;;4968564;28;20058;-70
2023/04/19 04:29:49;;;;;;;9.55;5.20;;;8.70;63.80;;;;;;4978779;28;20047;-71
2023/04/19 04:32:17;;;;;;;9.37;5.00;;;8.70;63.70;;;;;;4987532;28;20570;-71
2023/04/19 04:34:44;;;;;;;10.98;5.32;;;8.70;63.70;;;;;;4971868;28;20063;-71
2023/04/19 04:37:18;;;;;;;9.00;5.25;;;8.60;63.60;;;;;;4967648;28;20529;-70
2023/04/19 04:39:47;;;;;;;10.68;5.22;;;8.60;63.60;;;;;;4967204;28;20047;-71
2023/04/19 04:42:14;;;;;;;9.55;4.68;;;8.60;63.50;;;;;;4987338;28;20907;-70
2023/04/19 04:44:41;;;;;;;9.47;4.63;;;8.60;63.50;;;;;;4973461;28;20126;-70
2023/04/19 04:47:13;;;;;;;10.73;5.15;;;8.60;63.50;;;;;;4986976;28;20062;-70
2023/04/19 04:49:51;;;;;;;10.63;5.45;;;8.50;63.40;;;;;;4986617;28;20059;-71
2023/04/19 04:52:18;;;;;;;9.77;5.10;;;8.50;63.60;;;;;;4987608;28;20656;-71
2023/04/19 04:55:00;;;;;;;8.63;4.80;;;8.50;63.60;;;;;;4970707;28;20043;-70
2023/04/19 04:57:32;;;;;;;13.13;5.43;;;8.50;63.40;;;;;;4987490;28;20047;-70
2023/04/19 05:00:00;;;;;;;9.65;4.82;;;8.50;63.30;;;;;;4986142;28;20142;-71
2023/04/19 05:02:33;;;;;;;10.18;4.88;;;8.40;63.20;;;;;;4981934;28;20055;-70
2023/04/19 05:05:02;;;;;;;8.75;4.82;;;8.40;63.50;;;;;;4966575;28;20134;-70
2023/04/19 05:07:29;;;;;;;11.15;5.22;;;8.40;63.30;;;;;;4965929;28;20058;-70
2023/04/19 05:10:03;;;;;;;10.60;4.73;;;8.30;63.40;;;;;;4981114;28;20059;-70
2023/04/19 05:12:39;;;;;;;12.43;5.20;;;8.20;63.70;;;;;;4962964;28;21218;-71
2023/04/19 05:15:08;;;;;;;9.95;5.00;;;8.20;63.70;;;;;;4965917;28;20047;-70
2023/04/19 05:17:46;;;;;;;9.95;5.05;;;8.30;63.80;;;;;;4949689;28;20050;-71
2023/04/19 05:20:14;;;;;;;8.15;4.60;;;8.30;63.70;;;;;;4945458;28;21072;-70
2023/04/19 05:22:42;;;;;;;8.13;4.07;;;8.20;63.60;;;;;;4963765;28;20047;-71
2023/04/19 05:25:11;;;;;;;10.82;4.93;;;8.20;63.60;;;;;;4961729;28;20044;-70
2023/04/19 05:27:39;;;;;;;9.45;4.40;;;8.20;63.70;;;;;;4967473;28;20055;-70
2023/04/19 05:30:08;;;;;;;9.00;4.60;;;8.20;63.50;;;;;;4947454;28;20044;-70
2023/04/19 05:32:42;;;;;;;8.27;4.50;;;8.10;63.60;;;;;;4963274;28;20565;-71
2023/04/19 05:35:13;;;;;;;8.93;4.40;;;8.10;63.70;;;;;;4959523;28;20134;-71
2023/04/19 05:37:41;;;;;;;11.20;4.78;;;8.10;63.60;;;;;;4983133;28;20047;-71
2023/04/19 05:40:09;;;;;;;9.65;3.95;;;8.10;63.80;;;;;;4978973;28;20055;-71
2023/04/19 05:42:36;;;;;;;8.75;3.95;;;8.10;63.80;;;;;;4978797;28;20763;-71
2023/04/19 05:45:05;;;;;;;8.38;4.30;;;8.10;63.60;;;;;;4983754;28;20546;-70
2023/04/19 05:47:32;;;;;;;7.93;4.07;;;8.10;63.70;;;;;;4985453;28;20493;-70
2023/04/19 05:50:35;;;;;;;7.40;3.83;;;8.10;63.60;;;;;;4964497;28;20047;-70
2023/04/19 05:53:21;;;;;;;9.55;4.50;;;8.10;63.70;;;;;;4965316;28;20164;-70
2023/04/19 05:55:50;;;;;;;8.18;4.10;;;8.10;63.70;;;;;;4965485;28;20134;-71
2023/04/19 05:58:17;;;;;;;8.68;4.18;;;8.10;63.50;;;;;;4963025;28;20186;-71
2023/04/19 06:00:44;;;;;;;6.80;3.53;;;8.10;63.40;;;;;;4952524;28;20071;-71
2023/04/19 06:03:14;;;;;;;7.18;3.67;;;8.00;63.50;;;;;;4966039;28;20936;-71
2023/04/19 06:05:43;;;;;;;9.00;4.15;;;8.00;63.30;;;;;;4966820;28;20051;-71
2023/04/19 06:08:10;;;;;;;7.25;3.40;;;8.00;64.00;;;;;;4964614;28;20051;-71
2023/04/19 06:10:37;;;;;;;6.43;3.40;;;8.00;63.40;;;;;;4967349;28;20054;-71
2023/04/19 06:13:04;;;;;;;7.67;3.00;;;8.00;63.30;;;;;;4957797;28;20129;-71
2023/04/19 06:15:31;;;;;;;6.68;2.92;;;8.00;63.40;;;;;;4971753;28;20051;-71
2023/04/19 06:17:59;;;;;;;6.93;3.10;;;8.00;63.30;;;;;;4971317;28;20496;-71
2023/04/19 06:20:26;;;;;;;9.25;3.83;;;8.00;62.90;;;;;;4966168;28;20050;-71
2023/04/19 06:22:55;;;;;;;6.88;3.67;;;8.00;62.90;;;;;;4971548;28;20554;-71
2023/04/19 06:25:22;;;;;;;7.07;2.83;;;8.00;62.70;;;;;;4968437;28;20162;-71
2023/04/19 06:27:49;;;;;;;6.32;2.92;;;8.00;62.90;;;;;;4987223;28;20053;-71
2023/04/19 06:30:16;;;;;;;8.25;3.03;;;8.00;62.90;;;;;;4969234;28;20162;-71
2023/04/19 06:32:43;;;;;;;7.20;2.92;;;8.00;63.00;;;;;;4971980;28;20231;-70
2023/04/19 06:35:11;;;;;;;7.78;3.28;;;8.00;62.50;;;;;;4971326;28;20055;-70
2023/04/19 06:37:38;;;;;;;8.53;3.57;;;8.00;62.80;;;;;;4972266;28;20059;-71
2023/04/19 06:40:08;;;;;;;5.47;2.80;;;8.00;62.70;;;;;;4972244;28;20457;-70
2023/04/19 06:42:35;;;;;;;9.65;3.10;;;8.00;62.60;;;;;;4970742;28;20521;-71
2023/04/19 06:45:02;;;;;;;7.93;3.10;;;8.00;62.40;;;;;;4985854;28;20524;-71
2023/04/19 06:47:30;;;;;;;7.43;2.85;;;8.00;62.50;;;;;;4987364;28;20170;-71
2023/04/19 06:49:57;;;;;;;5.67;2.77;;;8.00;62.60;;;;;;4985376;28;20062;-71
2023/04/19 06:52:24;;;;;;;6.45;2.47;;;8.10;62.30;;;;;;4970352;28;20047;-71
2023/04/19 06:54:51;;;;;;;10.05;3.05;;;8.10;62.70;;;;;;4986162;28;20062;-71
2023/04/19 06:57:20;;;;;;;7.35;2.90;;;8.10;62.60;;;;;;4986504;28;20134;-71
2023/04/19 06:59:47;;;;;;;6.05;3.00;;;8.20;62.70;;;;;;4983185;28;20589;-71
2023/04/19 07:02:14;;;;;;;7.67;2.53;;;8.20;62.30;;;;;;4987084;28;20520;-71
2023/04/19 07:04:42;;;;;;;6.60;2.50;;;8.20;62.50;;;;;;4987439;28;20051;-71
2023/04/19 07:07:09;;;;;;;6.85;2.53;;;8.30;62.30;;;;;;4986031;28;20058;-71
2023/04/19 07:09:36;;;;;;;6.03;2.67;;;8.30;62.20;;;;;;4970506;28;20055;-71
2023/04/19 07:12:03;;;;;;;6.47;2.55;;;8.30;62.40;;;;;;4970168;28;20059;-72
2023/04/19 07:14:32;;;;;;;4.80;2.40;;;8.40;62.20;;;;;;4987154;28;20206;-71
2023/04/19 07:17:00;;;;;;;5.20;2.20;;;8.40;62.10;;;;;;4988534;28;20062;-72
2023/04/19 07:19:27;;;;;;;8.95;2.55;;;8.50;62.10;;;;;;4968039;28;20918;-72
2023/04/19 07:21:54;;;;;;;5.60;1.65;;;8.50;61.60;;;;;;4972627;28;20055;-72
2023/04/19 07:24:22;;;;;;;7.55;2.40;;;8.60;61.30;;;;;;4963503;28;20082;-71
2023/04/19 07:26:48;;;;;;;5.77;2.00;;;8.60;61.20;;;;;;4985541;28;20603;-71
2023/04/19 07:29:17;;;;;;;6.70;2.05;;;8.60;61.50;;;;;;4986206;28;20066;-72
2023/04/19 07:31:46;;;;;;;4.57;1.60;;;8.60;61.00;;;;;;4986321;28;20066;-71
2023/04/19 07:34:14;;;;;;;4.93;1.90;;;8.60;61.10;;;;;;4987565;28;20046;-72
2023/04/19 07:36:41;;;;;;;6.47;1.83;;;8.70;60.90;;;;;;4970390;28;20058;-71
2023/04/19 07:39:08;;;;;;;5.97;1.40;;;8.80;61.10;;;;;;4970382;28;20635;-74
2023/04/19 07:41:35;;;;;;;4.55;1.70;;;8.80;61.00;;;;;;4986607;28;20055;-72
2023/04/19 07:44:02;;;;;;;5.18;1.70;;;8.90;61.10;;;;;;4985375;28;21030;-71
2023/04/19 07:46:29;;;;;;;4.47;1.63;;;8.90;61.10;;;;;;4970903;28;20054;-71
2023/04/19 07:48:57;;;;;;;5.35;1.60;;;9.00;61.00;;;;;;4983738;28;20106;-71
2023/04/19 07:51:25;;;;;;;34.50;3.50;;;9.00;61.40;;;;;;4968594;28;20046;-71
2023/04/19 07:53:52;;;;;;;16.77;2.38;;;9.00;60.30;;;;;;4969813;28;20054;-71
2023/04/19 07:56:19;;;;;;;4.75;1.80;;;9.10;60.70;;;;;;4970361;28;20055;-71
2023/04/19 07:58:47;;;;;;;4.20;1.70;;;9.20;60.10;;;;;;4986979;28;20058;-71
2023/04/19 08:01:14;;;;;;;5.72;1.88;;;9.20;60.00;;;;;;4967706;28;20558;-71
2023/04/19 08:03:41;;;;;;;5.77;1.80;;;9.20;59.80;;;;;;4987813;28;20195;-71
2023/04/19 08:06:11;;;;;;;28.17;3.55;;;9.30;59.20;;;;;;4986199;28;20141;-71
2023/04/19 08:08:38;;;;;;;36.28;3.72;;;9.40;58.30;;;;;;4985497;28;20142;-71
2023/04/19 08:11:06;;;;;;;7.03;1.50;;;9.40;57.80;;;;;;4986191;28;20196;-71
2023/04/19 08:13:33;;;;;;;4.50;1.70;;;9.40;57.70;;;;;;4970493;28;20047;-71
2023/04/19 08:16:00;;;;;;;4.97;1.60;;;9.40;57.50;;;;;;4988312;28;20058;-71
2023/04/19 08:18:27;;;;;;;5.88;2.03;;;9.50;57.80;;;;;;4950075;28;20048;-71
2023/04/19 08:20:55;;;;;;;5.28;1.60;;;9.50;58.20;;;;;;4968958;28;20051;-71
2023/04/19 08:23:24;;;;;;;4.85;1.75;;;9.60;58.00;;;;;;4969472;28;20649;-71
2023/04/19 08:25:51;;;;;;;4.70;1.52;;;9.60;57.00;;;;;;4988093;28;20061;-71
2023/04/19 08:28:18;;;;;;;5.70;1.93;;;9.70;57.20;;;;;;4969090;28;20058;-71
2023/04/19 08:30:45;;;;;;;10.07;2.20;;;9.70;56.40;;;;;;4986565;28;20050;-71
2023/04/19 08:33:13;;;;;;;5.28;2.03;;;9.80;56.50;;;;;;4968702;28;20047;-71
2023/04/19 08:35:40;;;;;;;4.03;1.67;;;9.80;56.30;;;;;;4985955;28;20556;-71
2023/04/19 08:38:07;;;;;;;6.35;2.30;;;9.90;56.60;;;;;;4985633;28;20055;-71
2023/04/19 08:40:41;;;;;;;4.43;2.00;;;10.00;56.80;;;;;;4968682;28;20157;-71
2023/04/19 08:43:08;;;;;;;4.75;1.77;;;10.00;56.90;;;;;;4968759;28;20875;-71
2023/04/19 08:45:36;;;;;;;5.43;2.15;;;10.10;57.00;;;;;;4968930;28;20047;-71
2023/04/19 08:48:05;;;;;;;4.47;1.85;;;10.10;56.90;;;;;;4984267;28;20568;-71
2023/04/19 08:50:34;;;;;;;5.45;2.00;;;10.20;56.80;;;;;;4985504;28;20142;-71
2023/04/19 08:53:02;;;;;;;9.90;1.70;;;10.30;57.00;;;;;;4967400;28;20053;-71
2023/04/19 08:55:29;;;;;;;9.07;2.25;;;10.40;55.30;;;;;;4967949;28;20194;-71
2023/04/19 08:57:58;;;;;;;6.97;1.60;;;10.40;53.70;;;;;;4968514;28;20059;-71
2023/04/19 09:00:25;;;;;;;8.70;1.98;;;10.50;53.40;;;;;;4986376;28;20129;-71
2023/04/19 09:02:53;;;;;;;5.35;2.03;;;10.50;52.90;;;;;;4969339;28;20065;-71
2023/04/19 09:05:21;;;;;;;4.00;1.33;;;10.60;53.50;;;;;;4970221;28;20571;-71
2023/04/19 09:07:48;;;;;;;8.20;2.10;;;10.60;54.20;;;;;;4967770;28;20058;-71
2023/04/19 09:10:16;;;;;;;8.50;2.15;;;10.70;53.60;;;;;;4969676;28;20130;-72
2023/04/19 09:12:59;;;;;;;5.50;1.73;;;10.80;53.80;;;;;;4981982;28;20055;-72
2023/04/19 09:15:36;;;;;;;6.18;1.80;;;10.80;53.80;;;;;;4984285;28;20046;-71
2023/04/19 09:18:08;;;;;;;5.40;1.80;;;10.90;53.70;;;;;;4985142;28;20051;-72
2023/04/19 09:20:40;;;;;;;14.63;1.92;;;11.00;53.30;;;;;;4966584;28;20552;-71
2023/04/19 09:23:11;;;;;;;4.68;1.70;;;11.00;53.10;;;;;;4970604;28;20149;-71
2023/04/19 09:25:38;;;;;;;5.45;2.00;;;11.10;52.50;;;;;;4967457;28;20058;-71
2023/04/19 09:28:09;;;;;;;4.68;1.42;;;11.10;52.70;;;;;;4985328;28;20141;-71
2023/04/19 09:30:38;;;;;;;3.87;1.60;;;11.20;52.20;;;;;;4983104;28;20086;-71
2023/04/19 09:33:06;;;;;;;44.78;4.45;;;11.30;52.20;;;;;;4969577;28;20053;-71
2023/04/19 09:35:44;;;;;;;5.03;1.50;;;11.30;52.50;;;;;;4987331;28;20129;-71
2023/04/19 09:38:12;;;;;;;4.60;1.50;;;11.40;52.80;;;;;;4968353;28;20054;-71
2023/04/19 09:40:40;;;;;;;3.78;1.50;;;11.50;53.20;;;;;;4980902;28;20063;-73
2023/04/19 09:43:08;;;;;;;5.17;1.67;;;11.50;52.50;;;;;;4915124;28;24825;-71
2023/04/19 09:45:45;;;;;;;7.35;1.60;;;11.50;50.80;;;;;;4982438;28;20059;-71
2023/04/19 09:48:13;;;;;;;39.05;3.67;;;11.60;51.30;;;;;;4966968;28;20462;-71
2023/04/19 09:50:51;;;;;;;13.07;2.03;;;11.70;50.50;;;;;;4960962;28;20194;-71
2023/04/19 09:53:20;;;;;;;12.55;1.83;;;11.70;49.70;;;;;;4969041;28;20047;-71
2023/04/19 09:55:47;;;;;;;4.93;1.50;;;11.80;50.00;;;;;;4987467;28;20051;-71
2023/04/19 09:58:14;;;;;;;4.30;1.40;;;11.90;49.60;;;;;;4968854;28;20050;-71
2023/04/19 10:00:46;;;;;;;4.18;1.60;;;11.90;50.10;;;;;;4968429;28;20493;-71
2023/04/19 10:03:15;;;;;;;4.88;1.38;;;11.90;50.60;;;;;;4985108;28;20042;-71
2023/04/19 10:05:43;;;;;;;3.92;1.60;;;12.00;50.10;;;;;;4966391;28;20058;-71
2023/04/19 10:08:12;;;;;;;3.87;1.40;;;12.10;50.30;;;;;;4964850;28;20082;-72
2023/04/19 10:10:40;;;;;;;4.40;1.35;;;12.10;50.10;;;;;;4983167;28;20089;-71
2023/04/19 10:13:08;;;;;;;4.53;1.65;;;12.20;50.10;;;;;;4970259;28;20150;-71
2023/04/19 10:15:37;;;;;;;7.75;1.67;;;12.20;50.10;;;;;;4968775;28;20481;-71
2023/04/19 10:18:06;;;;;;;4.60;1.40;;;12.30;49.50;;;;;;4967250;28;20054;-72
2023/04/19 10:20:39;;;;;;;4.60;1.43;;;12.30;49.30;;;;;;4967005;28;20125;-71
2023/04/19 10:23:08;;;;;;;7.35;1.65;;;12.40;49.10;;;;;;4969093;28;20058;-71
2023/04/19 10:25:38;;;;;;;3.58;1.40;;;12.50;49.00;;;;;;4987415;28;20058;-72
2023/04/19 10:28:05;;;;;;;4.25;1.50;;;12.50;49.00;;;;;;4967551;28;20062;-72
2023/04/19 10:30:32;;;;;;;6.82;1.42;;;12.50;49.00;;;;;;4985868;28;20058;-72
2023/04/19 10:33:02;;;;;;;4.30;1.50;;;12.60;48.80;;;;;;4968913;28;20057;-71
2023/04/19 10:35:37;;;;;;;3.63;1.13;;;12.70;48.20;;;;;;4984692;28;20083;-71
2023/04/19 10:38:10;;;;;;;16.98;2.60;;;12.70;48.50;;;;;;4984305;28;20059;-71
2023/04/19 10:40:59;;;;;;;6.30;1.33;;;12.80;47.70;;;;;;4968184;28;20063;-71
2023/04/19 10:43:27;;;;;;;4.00;1.52;;;12.90;47.40;;;;;;4965373;28;21022;-71
2023/04/19 10:45:55;;;;;;;4.97;1.50;;;12.90;47.60;;;;;;4951371;28;20051;-72
2023/04/19 10:48:33;;;;;;;5.28;1.67;;;13.00;48.00;;;;;;4967891;28;20062;-72
2023/04/19 10:51:04;;;;;;;3.58;1.38;;;13.00;46.50;;;;;;4946653;28;20539;-71
2023/04/19 10:53:44;;;;;;;5.28;1.40;;;13.00;47.20;;;;;;4983689;28;20082;-72
2023/04/19 10:56:12;;;;;;;4.82;1.48;;;13.10;48.20;;;;;;4983473;28;20054;-72
2023/04/19 10:59:20;;;;;;;12.27;2.50;;;13.10;47.50;;;;;;4990210;28;20135;-71
2023/04/19 11:01:50;;;;;;;6.18;1.75;;;13.30;47.40;;;;;;4985784;28;20731;-72
2023/04/19 11:04:18;;;;;;;3.60;1.30;;;13.30;47.80;;;;;;4987566;28;20069;-72
2023/04/19 11:07:08;;;;;;;4.88;1.40;;;13.40;47.30;;;;;;4986876;28;20054;-72
2023/04/19 11:09:37;;;;;;;7.00;1.23;;;13.50;47.50;;;;;;4965712;28;20047;-72
2023/04/19 11:12:07;;;;;;;4.97;1.57;;;13.50;47.00;;;;;;4987241;28;20509;-72
2023/04/19 11:14:36;;;;;;;3.65;1.45;;;13.60;47.00;;;;;;4955948;28;20046;-72
2023/04/19 11:17:04;;;;;;;3.13;1.10;;;13.60;47.00;;;;;;4971258;28;20061;-71
2023/04/19 11:19:31;;;;;;;3.40;1.10;;;13.70;46.70;;;;;;4969583;28;20055;-72
2023/04/19 11:22:02;;;;;;;4.47;1.17;;;13.70;46.10;;;;;;4970911;28;20059;-72
2023/04/19 11:24:30;;;;;;;3.70;1.20;;;13.90;47.20;;;;;;4983126;28;20075;-72
2023/04/19 11:26:57;;;;;;;6.90;1.33;;;13.90;46.60;;;;;;4988384;28;20386;-72
2023/04/19 11:29:25;;;;;;;6.07;1.20;;;13.90;46.50;;;;;;4963774;28;20047;-72
2023/04/19 11:31:52;;;;;;;4.40;1.40;;;14.00;46.40;;;;;;4954133;28;20055;-72
2023/04/19 11:34:23;;;;;;;4.22;1.23;;;14.10;46.10;;;;;;4972152;28;20049;-72
2023/04/19 11:36:51;;;;;;;4.47;1.30;;;14.10;46.20;;;;;;4980558;28;20066;-72
2023/04/19 11:39:20;;;;;;;5.18;1.20;;;14.20;46.50;;;;;;4987234;28;20061;-72
2023/04/19 11:41:48;;;;;;;4.30;1.20;;;14.20;46.20;;;;;;4964752;28;20052;-72
2023/04/19 11:44:18;;;;;;;3.72;1.30;;;14.30;45.90;;;;;;4988095;28;20198;-72
2023/04/19 11:47:03;;;;;;;3.92;1.13;;;14.40;46.20;;;;;;4969919;28;20050;-72
2023/04/19 11:49:31;;;;;;;7.63;1.50;;;14.50;46.20;;;;;;4984461;28;20137;-72
2023/04/19 11:51:59;;;;;;;4.50;1.30;;;14.50;45.90;;;;;;4973067;28;20606;-73
2023/04/19 11:54:27;;;;;;;5.13;1.75;;;14.60;45.70;;;;;;4985332;28;20043;-72
2023/04/19 11:57:00;;;;;;;5.10;1.42;;;14.70;45.40;;;;;;4985673;28;21018;-72
2023/04/19 11:59:28;;;;;;;4.63;1.40;;;14.70;45.20;;;;;;4964430;28;20833;-71
2023/04/19 12:01:55;;;;;;;8.50;1.60;;;14.80;45.40;;;;;;4986475;28;20065;-72
2023/04/19 12:04:23;;;;;;;4.38;1.20;;;14.80;45.50;;;;;;4966130;28;20130;-72
2023/04/19 12:07:01;;;;;;;3.63;1.33;;;14.90;45.50;;;;;;4966213;28;20105;-72
2023/04/19 12:09:28;;;;;;;5.85;1.77;;;15.00;45.40;;;;;;4986464;28;20078;-72
2023/04/19 12:11:56;;;;;;;3.72;1.35;;;15.00;45.50;;;;;;4969299;28;20169;-71
2023/04/19 12:14:25;;;;;;;5.60;1.60;;;15.00;45.10;;;;;;4969196;28;20059;-72
2023/04/19 12:17:10;;;;;;;6.93;1.70;;;15.20;45.10;;;;;;4969792;28;20043;-72
2023/04/19 12:19:43;;;;;;;5.65;2.10;;;15.20;45.30;;;;;;4986569;28;20776;-72
2023/04/19 12:22:15;;;;;;;4.47;1.63;;;15.30;45.10;;;;;;4970360;28;20055;-73
2023/04/19 12:24:42;;;;;;;5.57;1.85;;;15.40;45.50;;;;;;4968277;28;20086;-72
2023/04/19 12:27:10;;;;;;;4.47;1.80;;;15.40;45.70;;;;;;4964776;28;20059;-72
2023/04/19 12:29:39;;;;;;;4.45;1.88;;;15.40;45.90;;;;;;4967154;28;20043;-72
2023/04/19 12:32:06;;;;;;;4.95;2.30;;;15.50;45.70;;;;;;4965042;28;20055;-72
2023/04/19 12:34:33;;;;;;;4.40;1.80;;;15.60;45.50;;;;;;4983652;28;20051;-72
2023/04/19 12:37:02;;;;;;;8.57;2.25;;;15.60;45.80;;;;;;4969962;28;20055;-72
2023/04/19 12:39:29;;;;;;;5.53;1.90;;;15.60;45.70;;;;;;4984086;28;20206;-71
2023/04/19 12:41:56;;;;;;;4.57;2.15;;;15.70;45.50;;;;;;4988581;28;20110;-71
2023/04/19 12:44:24;;;;;;;13.10;2.83;;;15.70;46.00;;;;;;4985602;28;20141;-71
2023/04/19 12:46:56;;;;;;;3.97;1.67;;;15.80;45.70;;;;;;4968356;28;20047;-72
2023/04/19 12:49:22;;;;;;;6.20;2.08;;;15.80;45.70;;;;;;4968415;28;20361;-72
2023/04/19 12:51:50;;;;;;;4.80;2.20;;;15.80;45.40;;;;;;4984757;28;20126;-72
2023/04/19 12:54:17;;;;;;;13.68;2.63;;;16.00;45.30;;;;;;4982605;28;20103;-72
2023/04/19 12:56:45;;;;;;;5.30;2.00;;;16.00;44.90;;;;;;4968657;28;20116;-72